sensor_id;sensor_type;location;lat;lon;timestamp;temperature;humidity
14771;DHT22;7477;45.222;5.688;2023-03-14T00:01:15;12.30;99.90
14771;DHT22;7477;45.222;5.688;2023-03-14T00:04:35;12.20;99.90
14771;DHT22;7477;45.222;5.688;2023-03-14T00:07:55;12.40;99.90
14771;DHT22;7477;45.222;5.688;2023-03-14T00:11:17;12.40;99.90
14771;DHT22;7477;45.222;5.688;2023-03-14T00:14:36;12.50;99.90
14771;DHT22;7477;45.222;5.688;2023-03-14T00:17:55;12.30;99.90
14771;DHT22;7477;45.222;5.688;2023-03-14T00:21:15;12.30;99.90
14771;DHT22;7477;45.222;5.688;2023-03-14T00:24:35;12.30;99.90
14771;DHT22;7477;45.222;5.688;2023-03-14T00:27:54;12.40;99.90
14771;DHT22;7477;45.222;5.688;2023-03-14T00:31:15;12.30;99.90
14771;DHT22;7477;45.222;5.688;2023-03-14T00:34:34;12.30;99.90
14771;DHT22;7477;45.222;5.688;2023-03-14T00:37:53;12.30;99.90
14771;DHT22;7477;45.222;5.688;2023-03-14T00:41:15;12.40;99.90
14771;DHT22;7477;45.222;5.688;2023-03-14T00:44:35;12.40;99.90
14771;DHT22;7477;45.222;5.688;2023-03-14T00:47:54;12.40;99.90
14771;DHT22;7477;45.222;5.688;2023-03-14T00:51:14;12.40;99.90
14771;DHT22;7477;45.222;5.688;2023-03-14T00:54:34;12.40;99.90
14771;DHT22;7477;45.222;5.688;2023-03-14T00:57:53;12.30;99.90
14771;DHT22;7477;45.222;5.688;2023-03-14T01:01:15;12.40;99.90
14771;DHT22;7477;45.222;5.688;2023-03-14T01:04:35;12.30;99.90
14771;DHT22;7477;45.222;5.688;2023-03-14T01:07:57;12.30;99.90
14771;DHT22;7477;45.222;5.688;2023-03-14T01:11:19;12.30;99.90
14771;DHT22;7477;45.222;5.688;2023-03-14T01:14:39;12.30;99.90
14771;DHT22;7477;45.222;5.688;2023-03-14T01:17:58;12.30;99.90
14771;DHT22;7477;45.222;5.688;2023-03-14T01:21:21;12.30;99.90
14771;DHT22;7477;45.222;5.688;2023-03-14T01:24:40;12.30;99.90
14771;DHT22;7477;45.222;5.688;2023-03-14T01:27:59;12.20;99.90
14771;DHT22;7477;45.222;5.688;2023-03-14T01:31:19;12.20;99.90
14771;DHT22;7477;45.222;5.688;2023-03-14T01:34:38;12.30;99.90
14771;DHT22;7477;45.222;5.688;2023-03-14T01:37:57;12.30;99.90
14771;DHT22;7477;45.222;5.688;2023-03-14T01:41:22;12.20;99.90
14771;DHT22;7477;45.222;5.688;2023-03-14T01:44:59;12.20;99.90
14771;DHT22;7477;45.222;5.688;2023-03-14T01:48:19;12.10;99.90
14771;DHT22;7477;45.222;5.688;2023-03-14T01:55:07;12.00;99.90
14771;DHT22;7477;45.222;5.688;2023-03-14T01:58:30;12.10;99.90
14771;DHT22;7477;45.222;5.688;2023-03-14T02:01:54;12.20;99.90
14771;DHT22;7477;45.222;5.688;2023-03-14T02:05:21;12.30;99.90
14771;DHT22;7477;45.222;5.688;2023-03-14T02:08:41;12.40;99.90
14771;DHT22;7477;45.222;5.688;2023-03-14T02:12:03;12.50;99.90
14771;DHT22;7477;45.222;5.688;2023-03-14T02:15:23;13.10;99.90
14771;DHT22;7477;45.222;5.688;2023-03-14T02:18:42;12.60;99.90
14771;DHT22;7477;45.222;5.688;2023-03-14T02:22:12;12.30;99.90
14771;DHT22;7477;45.222;5.688;2023-03-14T02:25:42;12.50;99.90
14771;DHT22;7477;45.222;5.688;2023-03-14T02:29:02;12.30;99.90
14771;DHT22;7477;45.222;5.688;2023-03-14T02:32:23;12.20;99.90
14771;DHT22;7477;45.222;5.688;2023-03-14T02:35:55;12.00;99.90
14771;DHT22;7477;45.222;5.688;2023-03-14T02:39:30;11.80;99.90
14771;DHT22;7477;45.222;5.688;2023-03-14T02:42:50;11.70;99.90
14771;DHT22;7477;45.222;5.688;2023-03-14T02:46:16;11.60;99.90
14771;DHT22;7477;45.222;5.688;2023-03-14T02:49:36;11.70;99.90
14771;DHT22;7477;45.222;5.688;2023-03-14T02:52:55;11.50;99.90
14771;DHT22;7477;45.222;5.688;2023-03-14T02:56:15;11.50;99.90
14771;DHT22;7477;45.222;5.688;2023-03-14T02:59:34;11.50;99.90
14771;DHT22;7477;45.222;5.688;2023-03-14T03:02:54;11.60;99.90
14771;DHT22;7477;45.222;5.688;2023-03-14T03:06:13;11.50;99.90
14771;DHT22;7477;45.222;5.688;2023-03-14T03:09:32;11.40;99.90
14771;DHT22;7477;45.222;5.688;2023-03-14T03:12:51;11.40;99.90
14771;DHT22;7477;45.222;5.688;2023-03-14T03:16:10;11.40;99.90
14771;DHT22;7477;45.222;5.688;2023-03-14T03:19:33;11.40;99.90
14771;DHT22;7477;45.222;5.688;2023-03-14T03:22:53;11.40;99.90
14771;DHT22;7477;45.222;5.688;2023-03-14T03:26:12;11.30;99.90
14771;DHT22;7477;45.222;5.688;2023-03-14T03:29:31;11.30;99.90
14771;DHT22;7477;45.222;5.688;2023-03-14T03:32:50;11.40;99.90
14771;DHT22;7477;45.222;5.688;2023-03-14T03:36:10;11.40;99.90
14771;DHT22;7477;45.222;5.688;2023-03-14T03:39:29;11.40;99.90
14771;DHT22;7477;45.222;5.688;2023-03-14T03:42:48;11.40;99.90
14771;DHT22;7477;45.222;5.688;2023-03-14T03:46:08;11.30;99.90
14771;DHT22;7477;45.222;5.688;2023-03-14T03:49:32;11.10;99.90
14771;DHT22;7477;45.222;5.688;2023-03-14T03:52:51;11.30;99.90
14771;DHT22;7477;45.222;5.688;2023-03-14T03:56:10;11.30;99.90
14771;DHT22;7477;45.222;5.688;2023-03-14T03:59:29;11.20;99.90
14771;DHT22;7477;45.222;5.688;2023-03-14T04:02:48;11.30;99.90
14771;DHT22;7477;45.222;5.688;2023-03-14T04:06:10;11.40;99.90
14771;DHT22;7477;45.222;5.688;2023-03-14T04:09:30;11.30;99.90
14771;DHT22;7477;45.222;5.688;2023-03-14T04:12:49;11.30;99.90
14771;DHT22;7477;45.222;5.688;2023-03-14T04:16:16;11.30;99.90
14771;DHT22;7477;45.222;5.688;2023-03-14T04:19:36;11.30;99.90
14771;DHT22;7477;45.222;5.688;2023-03-14T04:22:55;11.40;99.90
14771;DHT22;7477;45.222;5.688;2023-03-14T04:26:15;11.30;99.90
14771;DHT22;7477;45.222;5.688;2023-03-14T04:29:34;11.30;99.90
14771;DHT22;7477;45.222;5.688;2023-03-14T04:32:54;11.70;99.90
14771;DHT22;7477;45.222;5.688;2023-03-14T04:36:13;12.00;99.90
14771;DHT22;7477;45.222;5.688;2023-03-14T04:39:32;11.50;99.90
14771;DHT22;7477;45.222;5.688;2023-03-14T04:42:52;11.30;99.90
14771;DHT22;7477;45.222;5.688;2023-03-14T04:46:11;11.20;99.90
14771;DHT22;7477;45.222;5.688;2023-03-14T04:49:30;11.20;99.90
14771;DHT22;7477;45.222;5.688;2023-03-14T04:52:49;11.30;99.90
14771;DHT22;7477;45.222;5.688;2023-03-14T04:56:09;11.80;99.90
14771;DHT22;7477;45.222;5.688;2023-03-14T04:59:28;11.80;99.90
14771;DHT22;7477;45.222;5.688;2023-03-14T05:02:47;11.40;99.90
14771;DHT22;7477;45.222;5.688;2023-03-14T05:06:06;11.20;99.90
14771;DHT22;7477;45.222;5.688;2023-03-14T05:09:26;11.10;99.90
14771;DHT22;7477;45.222;5.688;2023-03-14T05:12:46;11.10;99.90
14771;DHT22;7477;45.222;5.688;2023-03-14T05:16:10;11.00;99.90
14771;DHT22;7477;45.222;5.688;2023-03-14T05:19:29;11.10;99.90
14771;DHT22;7477;45.222;5.688;2023-03-14T05:22:49;11.00;99.90
14771;DHT22;7477;45.222;5.688;2023-03-14T05:26:08;11.00;99.90
14771;DHT22;7477;45.222;5.688;2023-03-14T05:29:27;11.00;99.90
14771;DHT22;7477;45.222;5.688;2023-03-14T05:32:47;11.00;99.90
14771;DHT22;7477;45.222;5.688;2023-03-14T05:36:06;11.00;99.90
14771;DHT22;7477;45.222;5.688;2023-03-14T05:39:26;11.00;99.90
14771;DHT22;7477;45.222;5.688;2023-03-14T05:42:45;11.00;99.90
14771;DHT22;7477;45.222;5.688;2023-03-14T05:46:05;11.00;99.90
14771;DHT22;7477;45.222;5.688;2023-03-14T05:49:24;11.00;99.90
14771;DHT22;7477;45.222;5.688;2023-03-14T05:52:44;11.00;99.90
14771;DHT22;7477;45.222;5.688;2023-03-14T05:56:04;11.00;99.90
14771;DHT22;7477;45.222;5.688;2023-03-14T05:59:23;11.00;99.90
14771;DHT22;7477;45.222;5.688;2023-03-14T06:02:42;10.90;99.90
14771;DHT22;7477;45.222;5.688;2023-03-14T06:06:02;10.90;99.90
14771;DHT22;7477;45.222;5.688;2023-03-14T06:09:22;10.90;99.90
14771;DHT22;7477;45.222;5.688;2023-03-14T06:12:42;10.90;99.90
14771;DHT22;7477;45.222;5.688;2023-03-14T06:16:01;10.90;99.90
14771;DHT22;7477;45.222;5.688;2023-03-14T06:19:20;10.90;99.90
14771;DHT22;7477;45.222;5.688;2023-03-14T06:22:40;10.80;99.90
14771;DHT22;7477;45.222;5.688;2023-03-14T06:25:59;10.80;99.90
14771;DHT22;7477;45.222;5.688;2023-03-14T06:29:19;10.80;99.90
14771;DHT22;7477;45.222;5.688;2023-03-14T06:32:38;10.80;99.90
14771;DHT22;7477;45.222;5.688;2023-03-14T06:35:57;10.80;99.90
14771;DHT22;7477;45.222;5.688;2023-03-14T06:39:16;10.80;99.90
14771;DHT22;7477;45.222;5.688;2023-03-14T06:42:35;10.80;99.90
14771;DHT22;7477;45.222;5.688;2023-03-14T06:45:54;10.90;99.90
14771;DHT22;7477;45.222;5.688;2023-03-14T06:49:13;10.90;99.90
14771;DHT22;7477;45.222;5.688;2023-03-14T06:52:33;10.90;99.90
14771;DHT22;7477;45.222;5.688;2023-03-14T06:55:52;10.90;99.90
14771;DHT22;7477;45.222;5.688;2023-03-14T06:59:11;10.80;99.90
14771;DHT22;7477;45.222;5.688;2023-03-14T07:02:30;10.80;99.90
14771;DHT22;7477;45.222;5.688;2023-03-14T07:05:50;10.70;99.90
14771;DHT22;7477;45.222;5.688;2023-03-14T07:09:11;10.70;99.90
14771;DHT22;7477;45.222;5.688;2023-03-14T07:12:30;10.70;99.90
14771;DHT22;7477;45.222;5.688;2023-03-14T07:15:49;10.70;99.90
14771;DHT22;7477;45.222;5.688;2023-03-14T07:19:08;10.80;99.90
14771;DHT22;7477;45.222;5.688;2023-03-14T07:22:27;10.80;99.90
14771;DHT22;7477;45.222;5.688;2023-03-14T07:25:46;10.80;99.90
14771;DHT22;7477;45.222;5.688;2023-03-14T07:29:05;10.70;99.90
14771;DHT22;7477;45.222;5.688;2023-03-14T07:32:25;10.80;99.90
14771;DHT22;7477;45.222;5.688;2023-03-14T07:35:49;10.80;99.90
14771;DHT22;7477;45.222;5.688;2023-03-14T07:39:08;10.70;99.90
14771;DHT22;7477;45.222;5.688;2023-03-14T07:42:27;10.80;99.90
14771;DHT22;7477;45.222;5.688;2023-03-14T07:45:47;10.90;99.90
14771;DHT22;7477;45.222;5.688;2023-03-14T07:49:06;10.80;99.90
14771;DHT22;7477;45.222;5.688;2023-03-14T07:52:25;10.80;99.90
14771;DHT22;7477;45.222;5.688;2023-03-14T07:55:44;10.80;99.90
14771;DHT22;7477;45.222;5.688;2023-03-14T07:59:04;10.80;99.90
14771;DHT22;7477;45.222;5.688;2023-03-14T08:02:23;10.80;99.90
14771;DHT22;7477;45.222;5.688;2023-03-14T08:05:43;10.70;99.90
14771;DHT22;7477;45.222;5.688;2023-03-14T08:09:04;10.80;99.90
14771;DHT22;7477;45.222;5.688;2023-03-14T08:12:23;10.80;99.90
14771;DHT22;7477;45.222;5.688;2023-03-14T08:15:42;10.80;99.90
14771;DHT22;7477;45.222;5.688;2023-03-14T08:19:01;10.80;99.90
14771;DHT22;7477;45.222;5.688;2023-03-14T08:22:21;10.80;99.90
14771;DHT22;7477;45.222;5.688;2023-03-14T08:25:40;10.80;99.90
14771;DHT22;7477;45.222;5.688;2023-03-14T08:28:59;10.80;99.90
14771;DHT22;7477;45.222;5.688;2023-03-14T08:32:18;10.80;99.90
14771;DHT22;7477;45.222;5.688;2023-03-14T08:35:38;10.70;99.90
14771;DHT22;7477;45.222;5.688;2023-03-14T08:38:58;10.80;99.90
14771;DHT22;7477;45.222;5.688;2023-03-14T08:42:18;10.70;99.90
14771;DHT22;7477;45.222;5.688;2023-03-14T08:45:37;10.80;99.90
14771;DHT22;7477;45.222;5.688;2023-03-14T08:48:56;10.70;99.90
14771;DHT22;7477;45.222;5.688;2023-03-14T08:52:15;10.80;99.90
14771;DHT22;7477;45.222;5.688;2023-03-14T08:55:35;10.80;99.90
14771;DHT22;7477;45.222;5.688;2023-03-14T08:58:55;10.80;99.90
14771;DHT22;7477;45.222;5.688;2023-03-14T09:02:14;10.80;99.90
14771;DHT22;7477;45.222;5.688;2023-03-14T09:05:33;10.80;99.90
14771;DHT22;7477;45.222;5.688;2023-03-14T09:08:53;10.90;99.90
14771;DHT22;7477;45.222;5.688;2023-03-14T09:12:12;10.90;99.90
14771;DHT22;7477;45.222;5.688;2023-03-14T09:15:32;10.80;99.90
14771;DHT22;7477;45.222;5.688;2023-03-14T09:18:51;10.80;99.90
14771;DHT22;7477;45.222;5.688;2023-03-14T09:22:13;10.90;99.90
14771;DHT22;7477;45.222;5.688;2023-03-14T09:25:32;10.90;99.90
14771;DHT22;7477;45.222;5.688;2023-03-14T09:28:51;10.80;99.90
14771;DHT22;7477;45.222;5.688;2023-03-14T09:32:10;10.70;99.90
14771;DHT22;7477;45.222;5.688;2023-03-14T09:35:30;10.60;99.90
14771;DHT22;7477;45.222;5.688;2023-03-14T09:38:49;10.50;99.90
14771;DHT22;7477;45.222;5.688;2023-03-14T09:42:14;10.60;99.90
14771;DHT22;7477;45.222;5.688;2023-03-14T09:45:37;10.60;99.90
14771;DHT22;7477;45.222;5.688;2023-03-14T09:48:59;10.50;99.90
14771;DHT22;7477;45.222;5.688;2023-03-14T09:52:26;10.50;99.90
14771;DHT22;7477;45.222;5.688;2023-03-14T09:55:49;10.50;99.90
14771;DHT22;7477;45.222;5.688;2023-03-14T09:59:11;10.50;99.90
14771;DHT22;7477;45.222;5.688;2023-03-14T10:02:35;10.50;99.90
14771;DHT22;7477;45.222;5.688;2023-03-14T10:05:55;10.50;99.90
14771;DHT22;7477;45.222;5.688;2023-03-14T10:09:20;10.30;99.90
14771;DHT22;7477;45.222;5.688;2023-03-14T10:12:47;10.30;99.90
14771;DHT22;7477;45.222;5.688;2023-03-14T10:16:06;10.20;99.90
14771;DHT22;7477;45.222;5.688;2023-03-14T10:19:26;10.30;99.90
14771;DHT22;7477;45.222;5.688;2023-03-14T10:22:46;10.20;99.90
14771;DHT22;7477;45.222;5.688;2023-03-14T10:26:15;10.10;99.90
14771;DHT22;7477;45.222;5.688;2023-03-14T10:29:54;10.00;99.90
14771;DHT22;7477;45.222;5.688;2023-03-14T10:36:37;9.90;99.90
14771;DHT22;7477;45.222;5.688;2023-03-14T10:39:59;9.80;99.90
14771;DHT22;7477;45.222;5.688;2023-03-14T10:43:32;9.80;99.90
14771;DHT22;7477;45.222;5.688;2023-03-14T10:47:03;9.80;99.90
14771;DHT22;7477;45.222;5.688;2023-03-14T10:50:28;10.00;99.90
14771;DHT22;7477;45.222;5.688;2023-03-14T10:53:54;9.90;99.90
14771;DHT22;7477;45.222;5.688;2023-03-14T10:57:15;10.00;99.90
14771;DHT22;7477;45.222;5.688;2023-03-14T11:00:34;9.90;99.90
14771;DHT22;7477;45.222;5.688;2023-03-14T11:04:02;9.90;99.90
14771;DHT22;7477;45.222;5.688;2023-03-14T11:07:42;9.80;99.90
14771;DHT22;7477;45.222;5.688;2023-03-14T11:11:23;9.90;99.90
14771;DHT22;7477;45.222;5.688;2023-03-14T11:14:48;10.10;99.90
14771;DHT22;7477;45.222;5.688;2023-03-14T11:21:46;10.40;99.90
14771;DHT22;7477;45.222;5.688;2023-03-14T11:28:50;10.70;99.90
14771;DHT22;7477;45.222;5.688;2023-03-14T11:32:24;10.70;99.90
14771;DHT22;7477;45.222;5.688;2023-03-14T11:39:19;10.90;99.90
14771;DHT22;7477;45.222;5.688;2023-03-14T11:42:42;10.90;99.90
14771;DHT22;7477;45.222;5.688;2023-03-14T11:46:16;11.00;99.90
14771;DHT22;7477;45.222;5.688;2023-03-14T11:53:14;11.00;99.90
14771;DHT22;7477;45.222;5.688;2023-03-14T11:56:45;11.00;99.90
14771;DHT22;7477;45.222;5.688;2023-03-14T12:00:19;11.10;99.90
14771;DHT22;7477;45.222;5.688;2023-03-14T12:04:02;11.20;99.90
14771;DHT22;7477;45.222;5.688;2023-03-14T12:07:34;11.30;99.90
14771;DHT22;7477;45.222;5.688;2023-03-14T12:11:49;11.30;99.90
14771;DHT22;7477;45.222;5.688;2023-03-14T12:15:00;11.40;99.90
14771;DHT22;7477;45.222;5.688;2023-03-14T12:18:28;11.30;99.90
14771;DHT22;7477;45.222;5.688;2023-03-14T12:21:51;11.00;99.90
14771;DHT22;7477;45.222;5.688;2023-03-14T12:25:15;11.10;99.90
14771;DHT22;7477;45.222;5.688;2023-03-14T12:28:35;11.10;99.90
14771;DHT22;7477;45.222;5.688;2023-03-14T12:35:38;11.40;99.90
14771;DHT22;7477;45.222;5.688;2023-03-14T12:39:10;11.60;99.90
14771;DHT22;7477;45.222;5.688;2023-03-14T12:42:41;11.60;99.90
14771;DHT22;7477;45.222;5.688;2023-03-14T12:49:36;11.60;99.90
14771;DHT22;7477;45.222;5.688;2023-03-14T12:56:55;11.80;99.90
14771;DHT22;7477;45.222;5.688;2023-03-14T13:00:22;12.00;99.90
14771;DHT22;7477;45.222;5.688;2023-03-14T13:03:52;12.10;99.90
14771;DHT22;7477;45.222;5.688;2023-03-14T13:08:02;12.20;99.90
14771;DHT22;7477;45.222;5.688;2023-03-14T13:11:19;12.30;99.90
14771;DHT22;7477;45.222;5.688;2023-03-14T13:14:45;12.40;99.90
14771;DHT22;7477;45.222;5.688;2023-03-14T13:21:35;12.40;99.90
14771;DHT22;7477;45.222;5.688;2023-03-14T13:25:09;12.30;99.90
14771;DHT22;7477;45.222;5.688;2023-03-14T13:28:30;12.30;99.90
14771;DHT22;7477;45.222;5.688;2023-03-14T13:31:52;12.10;99.90
14771;DHT22;7477;45.222;5.688;2023-03-14T13:35:25;11.70;99.90
14771;DHT22;7477;45.222;5.688;2023-03-14T13:38:45;11.10;99.90
14771;DHT22;7477;45.222;5.688;2023-03-14T13:42:15;11.10;99.90
14771;DHT22;7477;45.222;5.688;2023-03-14T13:46:05;11.20;99.90
14771;DHT22;7477;45.222;5.688;2023-03-14T13:49:24;11.20;99.90
14771;DHT22;7477;45.222;5.688;2023-03-14T13:52:44;11.10;99.90
14771;DHT22;7477;45.222;5.688;2023-03-14T13:56:08;11.10;99.90
14771;DHT22;7477;45.222;5.688;2023-03-14T13:59:30;11.20;99.90
14771;DHT22;7477;45.222;5.688;2023-03-14T14:02:50;11.10;99.90
14771;DHT22;7477;45.222;5.688;2023-03-14T14:09:39;11.00;99.90
14771;DHT22;7477;45.222;5.688;2023-03-14T14:13:03;11.10;99.90
14771;DHT22;7477;45.222;5.688;2023-03-14T14:16:26;11.20;99.90
14771;DHT22;7477;45.222;5.688;2023-03-14T14:19:46;11.20;99.90
14771;DHT22;7477;45.222;5.688;2023-03-14T14:23:09;11.20;99.90
14771;DHT22;7477;45.222;5.688;2023-03-14T14:26:30;11.20;99.90
14771;DHT22;7477;45.222;5.688;2023-03-14T14:29:58;11.20;99.90
14771;DHT22;7477;45.222;5.688;2023-03-14T14:33:20;11.30;99.90
14771;DHT22;7477;45.222;5.688;2023-03-14T14:36:42;11.20;99.90
14771;DHT22;7477;45.222;5.688;2023-03-14T14:40:30;11.30;99.90
14771;DHT22;7477;45.222;5.688;2023-03-14T14:43:48;11.30;99.90
14771;DHT22;7477;45.222;5.688;2023-03-14T14:47:15;11.40;99.90
14771;DHT22;7477;45.222;5.688;2023-03-14T14:50:39;11.40;99.90
14771;DHT22;7477;45.222;5.688;2023-03-14T14:54:17;11.40;99.90
14771;DHT22;7477;45.222;5.688;2023-03-14T14:57:40;11.40;99.90
14771;DHT22;7477;45.222;5.688;2023-03-14T15:01:10;11.30;99.90
14771;DHT22;7477;45.222;5.688;2023-03-14T15:04:31;11.20;99.90
14771;DHT22;7477;45.222;5.688;2023-03-14T15:07:51;11.00;99.90
14771;DHT22;7477;45.222;5.688;2023-03-14T15:11:19;10.90;99.90
14771;DHT22;7477;45.222;5.688;2023-03-14T15:14:39;10.70;99.90
14771;DHT22;7477;45.222;5.688;2023-03-14T15:17:59;10.20;99.90
14771;DHT22;7477;45.222;5.688;2023-03-14T15:21:18;9.90;99.90
14771;DHT22;7477;45.222;5.688;2023-03-14T15:24:37;10.10;99.90
14771;DHT22;7477;45.222;5.688;2023-03-14T15:27:56;9.60;99.90
14771;DHT22;7477;45.222;5.688;2023-03-14T15:31:17;9.80;99.90
14771;DHT22;7477;45.222;5.688;2023-03-14T15:34:36;10.10;99.90
14771;DHT22;7477;45.222;5.688;2023-03-14T15:37:55;9.80;99.90
14771;DHT22;7477;45.222;5.688;2023-03-14T15:41:14;9.50;99.90
14771;DHT22;7477;45.222;5.688;2023-03-14T15:44:34;9.80;99.90
14771;DHT22;7477;45.222;5.688;2023-03-14T15:47:54;10.30;99.90
14771;DHT22;7477;45.222;5.688;2023-03-14T15:51:13;10.70;99.90
14771;DHT22;7477;45.222;5.688;2023-03-14T15:54:33;10.90;99.90
14771;DHT22;7477;45.222;5.688;2023-03-14T15:57:53;10.70;99.90
14771;DHT22;7477;45.222;5.688;2023-03-14T16:01:13;10.50;99.90
14771;DHT22;7477;45.222;5.688;2023-03-14T16:04:34;10.40;99.90
14771;DHT22;7477;45.222;5.688;2023-03-14T16:07:54;10.40;99.90
14771;DHT22;7477;45.222;5.688;2023-03-14T16:11:14;10.30;99.90
14771;DHT22;7477;45.222;5.688;2023-03-14T16:14:34;10.30;99.90
14771;DHT22;7477;45.222;5.688;2023-03-14T16:17:54;10.30;99.90
14771;DHT22;7477;45.222;5.688;2023-03-14T16:21:16;10.50;99.90
14771;DHT22;7477;45.222;5.688;2023-03-14T16:24:36;10.80;99.90
14771;DHT22;7477;45.222;5.688;2023-03-14T16:27:55;10.90;99.90
14771;DHT22;7477;45.222;5.688;2023-03-14T16:31:18;10.80;99.90
14771;DHT22;7477;45.222;5.688;2023-03-14T16:34:39;10.70;99.90
14771;DHT22;7477;45.222;5.688;2023-03-14T16:37:59;10.70;99.90
14771;DHT22;7477;45.222;5.688;2023-03-14T16:41:19;10.70;99.90
14771;DHT22;7477;45.222;5.688;2023-03-14T16:44:39;10.60;99.90
14771;DHT22;7477;45.222;5.688;2023-03-14T16:47:58;10.50;99.90
14771;DHT22;7477;45.222;5.688;2023-03-14T16:51:18;10.40;99.90
14771;DHT22;7477;45.222;5.688;2023-03-14T16:54:37;10.30;99.90
14771;DHT22;7477;45.222;5.688;2023-03-14T16:57:56;10.30;99.90
14771;DHT22;7477;45.222;5.688;2023-03-14T17:01:16;10.20;99.90
14771;DHT22;7477;45.222;5.688;2023-03-14T17:04:39;10.30;99.90
14771;DHT22;7477;45.222;5.688;2023-03-14T17:08:00;10.30;99.90
14771;DHT22;7477;45.222;5.688;2023-03-14T17:11:19;10.20;99.90
14771;DHT22;7477;45.222;5.688;2023-03-14T17:14:41;10.20;99.90
14771;DHT22;7477;45.222;5.688;2023-03-14T17:18:00;10.10;99.90
14771;DHT22;7477;45.222;5.688;2023-03-14T17:21:21;10.10;99.90
14771;DHT22;7477;45.222;5.688;2023-03-14T17:24:40;10.10;99.90
14771;DHT22;7477;45.222;5.688;2023-03-14T17:27:59;10.10;99.90
14771;DHT22;7477;45.222;5.688;2023-03-14T17:31:19;10.10;99.90
14771;DHT22;7477;45.222;5.688;2023-03-14T17:34:38;10.00;99.90
14771;DHT22;7477;45.222;5.688;2023-03-14T17:37:57;10.00;99.90
14771;DHT22;7477;45.222;5.688;2023-03-14T17:41:17;9.90;99.90
14771;DHT22;7477;45.222;5.688;2023-03-14T17:44:37;9.90;99.90
14771;DHT22;7477;45.222;5.688;2023-03-14T17:47:57;9.90;99.90
14771;DHT22;7477;45.222;5.688;2023-03-14T17:51:16;9.80;99.90
14771;DHT22;7477;45.222;5.688;2023-03-14T17:54:35;9.70;99.90
14771;DHT22;7477;45.222;5.688;2023-03-14T17:57:54;9.70;99.90
14771;DHT22;7477;45.222;5.688;2023-03-14T18:01:18;9.60;99.90
14771;DHT22;7477;45.222;5.688;2023-03-14T18:04:37;9.60;99.90
14771;DHT22;7477;45.222;5.688;2023-03-14T18:07:56;9.60;99.90
14771;DHT22;7477;45.222;5.688;2023-03-14T18:11:16;9.50;99.90
14771;DHT22;7477;45.222;5.688;2023-03-14T18:14:36;9.40;99.90
14771;DHT22;7477;45.222;5.688;2023-03-14T18:17:55;9.40;99.90
14771;DHT22;7477;45.222;5.688;2023-03-14T18:21:16;9.40;99.90
14771;DHT22;7477;45.222;5.688;2023-03-14T18:24:36;9.20;99.90
14771;DHT22;7477;45.222;5.688;2023-03-14T18:27:55;9.20;99.90
14771;DHT22;7477;45.222;5.688;2023-03-14T18:31:15;9.10;99.90
14771;DHT22;7477;45.222;5.688;2023-03-14T18:34:39;9.10;99.90
14771;DHT22;7477;45.222;5.688;2023-03-14T18:38:01;9.00;99.90
14771;DHT22;7477;45.222;5.688;2023-03-14T18:41:20;8.90;99.90
14771;DHT22;7477;45.222;5.688;2023-03-14T18:44:41;8.80;99.90
14771;DHT22;7477;45.222;5.688;2023-03-14T18:48:00;8.80;99.90
14771;DHT22;7477;45.222;5.688;2023-03-14T18:51:19;8.80;99.90
14771;DHT22;7477;45.222;5.688;2023-03-14T18:54:38;8.70;99.90
14771;DHT22;7477;45.222;5.688;2023-03-14T18:57:58;8.60;99.90
14771;DHT22;7477;45.222;5.688;2023-03-14T19:01:17;8.60;99.90
14771;DHT22;7477;45.222;5.688;2023-03-14T19:04:37;8.70;99.90
14771;DHT22;7477;45.222;5.688;2023-03-14T19:07:56;8.60;99.90
14771;DHT22;7477;45.222;5.688;2023-03-14T19:11:16;8.60;99.90
14771;DHT22;7477;45.222;5.688;2023-03-14T19:14:35;8.50;99.90
14771;DHT22;7477;45.222;5.688;2023-03-14T19:17:55;8.50;99.90
14771;DHT22;7477;45.222;5.688;2023-03-14T19:21:25;8.50;99.90
14771;DHT22;7477;45.222;5.688;2023-03-14T19:24:45;8.60;99.90
14771;DHT22;7477;45.222;5.688;2023-03-14T19:28:04;8.40;99.90
14771;DHT22;7477;45.222;5.688;2023-03-14T19:31:24;8.30;99.90
14771;DHT22;7477;45.222;5.688;2023-03-14T19:34:43;8.40;99.90
14771;DHT22;7477;45.222;5.688;2023-03-14T19:38:02;8.40;99.90
14771;DHT22;7477;45.222;5.688;2023-03-14T19:41:23;8.50;99.90
14771;DHT22;7477;45.222;5.688;2023-03-14T19:44:42;8.60;99.90
14771;DHT22;7477;45.222;5.688;2023-03-14T19:48:04;8.50;99.90
14771;DHT22;7477;45.222;5.688;2023-03-14T19:51:24;8.50;99.90
14771;DHT22;7477;45.222;5.688;2023-03-14T19:54:44;8.40;99.90
14771;DHT22;7477;45.222;5.688;2023-03-14T19:58:04;8.40;99.90
14771;DHT22;7477;45.222;5.688;2023-03-14T20:01:23;8.40;99.90
14771;DHT22;7477;45.222;5.688;2023-03-14T20:04:44;8.40;99.90
14771;DHT22;7477;45.222;5.688;2023-03-14T20:08:04;8.30;99.90
14771;DHT22;7477;45.222;5.688;2023-03-14T20:11:23;8.30;99.90
14771;DHT22;7477;45.222;5.688;2023-03-14T20:14:43;8.20;99.90
14771;DHT22;7477;45.222;5.688;2023-03-14T20:18:02;8.30;99.90
14771;DHT22;7477;45.222;5.688;2023-03-14T20:21:21;8.30;99.90
14771;DHT22;7477;45.222;5.688;2023-03-14T20:24:40;8.30;99.90
14771;DHT22;7477;45.222;5.688;2023-03-14T20:28:00;8.30;99.90
14771;DHT22;7477;45.222;5.688;2023-03-14T20:31:20;8.20;99.90
14771;DHT22;7477;45.222;5.688;2023-03-14T20:34:40;8.20;99.90
14771;DHT22;7477;45.222;5.688;2023-03-14T20:37:59;8.20;99.90
14771;DHT22;7477;45.222;5.688;2023-03-14T20:41:18;8.20;99.90
14771;DHT22;7477;45.222;5.688;2023-03-14T20:44:38;8.10;99.90
14771;DHT22;7477;45.222;5.688;2023-03-14T20:47:57;8.20;99.90
14771;DHT22;7477;45.222;5.688;2023-03-14T20:51:16;8.10;99.90
14771;DHT22;7477;45.222;5.688;2023-03-14T20:54:35;8.20;99.90
14771;DHT22;7477;45.222;5.688;2023-03-14T20:57:55;8.20;99.90
14771;DHT22;7477;45.222;5.688;2023-03-14T21:01:15;8.10;99.90
14771;DHT22;7477;45.222;5.688;2023-03-14T21:04:34;8.20;99.90
14771;DHT22;7477;45.222;5.688;2023-03-14T21:07:53;8.20;99.90
14771;DHT22;7477;45.222;5.688;2023-03-14T21:11:13;8.20;99.90
14771;DHT22;7477;45.222;5.688;2023-03-14T21:14:32;8.20;99.90
14771;DHT22;7477;45.222;5.688;2023-03-14T21:17:51;8.20;99.90
14771;DHT22;7477;45.222;5.688;2023-03-14T21:21:11;8.30;99.90
14771;DHT22;7477;45.222;5.688;2023-03-14T21:24:32;8.30;99.90
14771;DHT22;7477;45.222;5.688;2023-03-14T21:27:52;8.30;99.90
14771;DHT22;7477;45.222;5.688;2023-03-14T21:31:11;8.30;99.90
14771;DHT22;7477;45.222;5.688;2023-03-14T21:34:31;8.30;99.90
14771;DHT22;7477;45.222;5.688;2023-03-14T21:37:50;8.40;99.90
14771;DHT22;7477;45.222;5.688;2023-03-14T21:41:09;8.40;99.90
14771;DHT22;7477;45.222;5.688;2023-03-14T21:44:29;8.40;99.90
14771;DHT22;7477;45.222;5.688;2023-03-14T21:47:57;8.40;99.90
14771;DHT22;7477;45.222;5.688;2023-03-14T21:51:16;8.30;99.90
14771;DHT22;7477;45.222;5.688;2023-03-14T21:54:35;8.30;99.90
14771;DHT22;7477;45.222;5.688;2023-03-14T21:57:54;8.30;99.90
14771;DHT22;7477;45.222;5.688;2023-03-14T22:01:13;8.30;99.90
14771;DHT22;7477;45.222;5.688;2023-03-14T22:04:33;8.40;99.90
14771;DHT22;7477;45.222;5.688;2023-03-14T22:07:52;8.30;99.90
14771;DHT22;7477;45.222;5.688;2023-03-14T22:11:11;8.30;99.90
14771;DHT22;7477;45.222;5.688;2023-03-14T22:14:31;8.30;99.90
14771;DHT22;7477;45.222;5.688;2023-03-14T22:17:50;8.30;99.90